Time;durP1;ratioP1;P1;durP2;ratioP2;P2;SDS_P1;SDS_P2;PMS_P1;PMS_P2;Temp;Humidity;BMP_temperature;BMP_pressure;BME280_temperature;BME280_humidity;BME280_pressure;Samples;Min_cycle;Max_cycle;Signal;HPM_P1;HPM_P2
2023/01/16 00:01:47;;;;;;;7.32;4.13;;;;;;;2.35;100.00;99384.81;5035129;28;20362;-53
2023/01/16 00:04:12;;;;;;;6.43;3.63;;;;;;;2.28;100.00;99344.28;5016034;28;20177;-53
2023/01/16 00:06:38;;;;;;;6.53;4.00;;;;;;;2.50;100.00;99368.03;5034951;28;20498;-53
2023/01/16 00:09:04;;;;;;;7.10;3.70;;;;;;;2.51;100.00;99355.00;5035248;28;20058;-50
2023/01/16 00:11:29;;;;;;;3.97;3.58;;;;;;;2.44;100.00;99330.09;5034847;28;20040;-54
2023/01/16 00:13:55;;;;;;;4.43;3.25;;;;;;;2.21;100.00;99286.50;5017512;28;20064;-51
2023/01/16 00:16:21;;;;;;;4.53;3.67;;;;;;;2.17;100.00;99269.28;5034781;28;20033;-53
2023/01/16 00:18:46;;;;;;;6.72;3.85;;;;;;;2.35;100.00;99296.53;5017012;28;20387;-56
2023/01/16 00:21:11;;;;;;;4.50;3.50;;;;;;;2.58;100.00;99329.75;5035405;28;20128;-54
2023/01/16 00:23:37;;;;;;;5.72;3.67;;;;;;;2.50;100.00;99331.69;5034830;28;20381;-54
2023/01/16 00:26:09;;;;;;;8.05;3.30;;;;;;;2.45;100.00;99323.97;5034766;28;20500;-54
2023/01/16 00:28:37;;;;;;;7.22;3.67;;;;;;;2.13;100.00;99272.00;5000994;28;20034;-55
2023/01/16 00:31:04;;;;;;;5.55;3.35;;;;;;;2.34;100.00;99297.41;5034595;28;20048;-55
2023/01/16 00:33:30;;;;;;;11.00;3.85;;;;;;;2.11;100.00;99265.97;5034896;28;20168;-55
2023/01/16 00:35:55;;;;;;;8.70;3.67;;;;;;;2.56;100.00;99322.00;5017023;28;20033;-55
2023/01/16 00:38:21;;;;;;;4.78;3.28;;;;;;;2.70;100.00;99319.91;5017024;28;20029;-55
2023/01/16 00:40:46;;;;;;;5.88;3.63;;;;;;;2.51;100.00;99242.50;5034630;28;20041;-56
2023/01/16 00:43:11;;;;;;;5.15;3.10;;;;;;;2.83;100.00;99284.09;5034338;28;20045;-55
2023/01/16 00:45:37;;;;;;;7.03;3.15;;;;;;;2.80;100.00;99286.78;5016601;28;20056;-56
2023/01/16 00:48:03;;;;;;;6.15;3.20;;;;;;;2.84;100.00;99290.97;5000106;28;20107;-54
2023/01/16 00:50:28;;;;;;;5.38;2.88;;;;;;;2.53;100.00;99236.38;5033741;28;20069;-57
2023/01/16 00:52:53;;;;;;;4.85;3.53;;;;;;;2.78;100.00;99281.59;5016762;28;20041;-55
2023/01/16 00:55:19;;;;;;;6.05;3.28;;;;;;;2.71;100.00;99274.00;5034241;28;20473;-56
2023/01/16 00:57:44;;;;;;;14.98;4.40;;;;;;;2.60;100.00;99278.59;5034706;28;20113;-53
2023/01/16 01:00:10;;;;;;;7.53;3.72;;;;;;;2.23;100.00;99208.56;5035192;28;20344;-56
2023/01/16 01:02:35;;;;;;;8.13;3.85;;;;;;;2.54;100.00;99263.19;5016807;28;20033;-55
2023/01/16 01:05:00;;;;;;;9.38;3.65;;;;;;;2.50;100.00;99256.38;5033863;28;20443;-56
2023/01/16 01:07:26;;;;;;;9.13;4.45;;;;;;;2.46;100.00;99245.19;5034195;28;20117;-54
2023/01/16 01:09:51;;;;;;;10.85;4.72;;;;;;;2.14;100.00;99175.91;5033859;28;20428;-53
2023/01/16 01:12:16;;;;;;;11.77;4.35;;;;;;;2.33;100.00;99227.38;5033818;28;20034;-50
2023/01/16 01:14:42;;;;;;;9.02;4.10;;;;;;;2.07;100.00;99168.31;5034273;28;20038;-55
2023/01/16 01:17:07;;;;;;;10.25;4.90;;;;;;;2.12;100.00;99174.25;5034200;28;20065;-53
2023/01/16 01:19:33;;;;;;;6.63;4.50;;;;;;;2.32;100.00;99202.28;5033856;28;20048;-56
2023/01/16 01:21:58;;;;;;;10.60;4.93;;;;;;;2.17;100.00;99160.25;4999819;28;20033;-54
2023/01/16 01:24:24;;;;;;;17.88;5.72;;;;;;;2.43;100.00;99188.13;5033900;28;20116;-53
2023/01/16 01:26:49;;;;;;;13.48;6.05;;;;;;;2.66;100.00;99192.72;5033611;28;20037;-54
2023/01/16 01:29:14;;;;;;;9.57;5.93;;;;;;;2.79;100.00;99204.50;5033486;28;20068;-54
2023/01/16 01:31:40;;;;;;;12.52;6.68;;;;;;;2.74;100.00;99188.19;5015819;28;20569;-54
2023/01/16 01:34:05;;;;;;;17.88;7.30;;;;;;;2.35;100.00;99138.16;5033516;28;20484;-53
2023/01/16 01:36:30;;;;;;;13.77;7.75;;;;;;;2.72;100.00;99188.22;5033347;28;20037;-54
2023/01/16 01:38:56;;;;;;;18.35;8.40;;;;;;;2.64;100.00;99173.75;5033515;28;20095;-55
2023/01/16 01:41:21;;;;;;;15.68;8.98;;;;;;;2.72;100.00;99180.44;5033694;28;20095;-55
2023/01/16 01:43:55;;;;;;;15.15;8.32;;;;;;;2.70;100.00;99165.78;5033287;28;20084;-56
2023/01/16 01:46:38;;;;;;;19.40;8.90;;;;;;;2.72;100.00;99164.84;5015807;28;20028;-53
2023/01/16 01:49:13;;;;;;;16.08;8.68;;;;;;;2.69;100.00;99154.53;5033385;28;20485;-56
2023/01/16 01:51:41;;;;;;;19.63;9.13;;;;;;;2.71;100.00;99149.31;5015599;28;20057;-52
2023/01/16 01:54:15;;;;;;;21.70;8.52;;;;;;;2.69;100.00;99133.75;5032912;28;20492;-53
2023/01/16 01:56:54;;;;;;;17.27;9.02;;;;;;;2.83;100.00;99126.41;5032436;28;20029;-50
2023/01/16 01:59:32;;;;;;;14.32;8.88;;;;;;;3.00;100.00;99125.97;5032997;28;20048;-53
2023/01/16 02:01:58;;;;;;;18.38;8.80;;;;;;;2.76;100.00;99065.16;5032689;28;20412;-54
2023/01/16 02:04:28;;;;;;;19.00;9.50;;;;;;;3.18;100.00;99127.16;5033009;28;20079;-54
2023/01/16 02:06:55;;;;;;;15.43;9.93;;;;;;;3.25;100.00;99113.06;5015041;28;20025;-53
2023/01/16 02:09:22;;;;;;;17.38;10.23;;;;;;;2.95;100.00;99046.44;5014440;28;20492;-54
2023/01/16 02:11:56;;;;;;;15.77;9.40;;;;;;;3.26;100.00;99110.44;5033069;28;20029;-53
2023/01/16 02:14:22;;;;;;;17.85;10.57;;;;;;;2.89;100.00;99052.63;5032693;28;20091;-50
2023/01/16 02:19:44;;;;;;;17.60;9.35;;;;;;;3.29;100.00;99112.94;5017766;28;20107;-52
2023/01/16 02:22:27;;;;;;;17.63;9.15;;;;;;;3.27;100.00;99108.66;5032915;28;20042;-56
2023/01/16 02:25:01;;;;;;;17.75;9.32;;;;;;;3.23;100.00;99109.66;5032879;28;20034;-55
2023/01/16 02:27:36;;;;;;;10.50;8.07;;;;;;;3.20;100.00;99096.75;5032556;28;20030;-57
2023/01/16 02:30:26;;;;;;;13.43;8.18;;;;;;;3.11;100.00;99097.91;5032350;28;20042;-56
2023/01/16 02:33:07;;;;;;;13.23;8.05;;;;;;;3.06;100.00;99078.13;5032812;28;20049;-54
2023/01/16 02:35:45;;;;;;;9.93;6.33;;;;;;;2.78;100.00;99023.53;5032598;28;20033;-51
2023/01/16 02:38:26;;;;;;;13.23;6.35;;;;;;;2.76;100.00;99013.19;5014602;28;20044;-53
2023/01/16 02:41:01;;;;;;;12.10;6.40;;;;;;;3.07;100.00;99069.41;5032214;28;20025;-56
2023/01/16 02:43:55;;;;;;;14.95;5.55;;;;;;;3.02;100.00;99048.78;5014639;28;20057;-53
2023/01/16 02:46:34;;;;;;;7.68;4.88;;;;;;;2.66;100.00;98996.16;5008868;28;20041;-56
2023/01/16 02:49:17;;;;;;;7.63;4.82;;;;;;;2.90;100.00;99033.56;5030356;28;20077;-52
2023/01/16 02:51:53;;;;;;;8.90;4.03;;;;;;;2.69;100.00;98996.06;5014483;28;20531;-51
2023/01/16 02:54:32;;;;;;;17.15;4.47;;;;;;;2.80;100.00;99016.56;5031418;28;20451;-53
2023/01/16 02:57:04;;;;;;;13.90;3.83;;;;;;;2.56;100.00;98975.72;5030502;28;20041;-52
2023/01/16 02:59:29;;;;;;;10.05;4.00;;;;;;;2.68;100.00;98996.13;5014228;28;20068;-48
2023/01/16 03:01:56;;;;;;;10.27;4.47;;;;;;;2.68;100.00;98998.72;5014256;28;20033;-54
2023/01/16 03:04:41;;;;;;;8.32;4.10;;;;;;;2.30;100.00;98928.88;5014416;28;20036;-55
2023/01/16 03:07:17;;;;;;;8.32;3.92;;;;;;;2.62;100.00;98997.16;5031747;28;20034;-53
2023/01/16 03:10:01;;;;;;;11.15;3.95;;;;;;;2.54;100.00;98973.16;5031891;28;20060;-54
2023/01/16 03:12:45;;;;;;;8.82;3.78;;;;;;;2.60;100.00;98972.97;5013517;28;20064;-51
2023/01/16 03:15:21;;;;;;;8.95;3.83;;;;;;;2.16;100.00;98901.56;5031776;28;20364;-53
2023/01/16 03:18:03;;;;;;;5.78;3.88;;;;;;;2.55;100.00;98976.59;5014031;28;20615;-54
2023/01/16 03:20:39;;;;;;;11.68;4.78;;;;;;;2.52;100.00;98969.75;5031837;28;20036;-55
2023/01/16 03:23:15;;;;;;;14.13;5.63;;;;;;;2.54;100.00;98964.53;5031661;28;20041;-55
2023/01/16 03:25:47;;;;;;;11.35;5.25;;;;;;;2.51;100.00;98943.84;5013829;28;20473;-51
2023/01/16 03:28:20;;;;;;;9.43;5.00;;;;;;;2.55;100.00;98959.28;5031469;28;20041;-56
2023/01/16 03:30:49;;;;;;;11.77;4.78;;;;;;;2.59;100.00;98939.25;5014056;28;20465;-55
2023/01/16 03:33:30;;;;;;;11.52;4.88;;;;;;;2.24;100.00;98862.44;5031645;28;20116;-54
2023/01/16 03:36:10;;;;;;;12.05;4.97;;;;;;;2.58;100.00;98916.78;5014052;28;20083;-56
2023/01/16 03:38:36;;;;;;;10.90;4.85;;;;;;;2.61;100.00;98927.91;5013734;28;20029;-52
2023/01/16 03:41:04;;;;;;;10.90;4.32;;;;;;;2.24;100.00;98849.44;5013820;28;20037;-52
2023/01/16 03:43:33;;;;;;;9.80;4.93;;;;;;;2.30;100.00;98864.84;5013840;28;20072;-54
2023/01/16 03:46:07;;;;;;;11.10;5.07;;;;;;;2.61;100.00;98901.09;5013793;28;20388;-53
2023/01/16 03:48:49;;;;;;;10.63;5.40;;;;;;;2.57;100.00;98876.97;5031537;28;20034;-53
2023/01/16 03:51:23;;;;;;;14.30;4.72;;;;;;;2.61;100.00;98881.16;5013503;28;20028;-54
2023/01/16 03:53:59;;;;;;;10.75;5.05;;;;;;;2.55;100.00;98857.13;5031461;28;20031;-51
2023/01/16 03:56:32;;;;;;;7.88;4.55;;;;;;;2.61;100.00;98873.38;5031482;28;20025;-51
2023/01/16 03:58:57;;;;;;;11.38;5.43;;;;;;;2.61;100.00;98846.56;5013861;28;20116;-54
2023/01/16 04:01:28;;;;;;;13.48;4.90;;;;;;;2.74;100.00;98843.50;5030973;28;20441;-53
2023/01/16 04:04:02;;;;;;;7.45;4.38;;;;;;;2.82;100.00;98828.53;5031498;28;20037;-48
2023/01/16 04:06:34;;;;;;;10.52;4.60;;;;;;;2.89;100.00;98825.72;5031373;28;20120;-52
2023/01/16 04:09:04;;;;;;;10.32;4.43;;;;;;;2.64;100.00;98765.94;5013438;28;20053;-54
2023/01/16 04:11:30;;;;;;;9.30;4.28;;;;;;;2.94;100.00;98801.28;5013579;28;20033;-56
2023/01/16 04:13:57;;;;;;;10.55;3.65;;;;;;;2.97;100.00;98808.13;5013633;28;20042;-49
2023/01/16 04:16:22;;;;;;;13.48;4.72;;;;;;;2.91;100.00;98774.56;5013637;28;20033;-54
2023/01/16 04:18:49;;;;;;;11.48;3.85;;;;;;;2.56;100.00;98718.59;5031290;28;20460;-54
2023/01/16 04:21:14;;;;;;;7.43;2.88;;;;;;;2.65;100.00;98744.25;5013596;28;20061;-53
2023/01/16 04:23:40;;;;;;;7.40;3.38;;;;;;;2.52;100.00;98715.25;5032710;28;20065;-54
2023/01/16 04:26:05;;;;;;;7.65;3.50;;;;;;;2.76;100.00;98758.59;5034886;28;20033;-51
2023/01/16 04:28:30;;;;;;;9.32;2.97;;;;;;;2.58;100.00;98714.19;5034632;28;20041;-52
2023/01/16 04:30:56;;;;;;;11.77;3.20;;;;;;;2.74;100.00;98733.56;5034635;28;20048;-56
2023/01/16 04:33:21;;;;;;;7.90;2.55;;;;;;;2.76;100.00;98729.16;5034904;28;20462;-57
2023/01/16 04:35:46;;;;;;;6.28;2.55;;;;;;;2.78;100.00;98722.16;5034848;28;20044;-53
2023/01/16 04:38:12;;;;;;;6.30;2.67;;;;;;;2.70;100.00;98711.19;5034422;28;20433;-55
2023/01/16 04:40:37;;;;;;;3.85;1.63;;;;;;;2.59;100.00;98700.31;5034729;28;20040;-53
2023/01/16 04:43:03;;;;;;;5.53;2.00;;;;;;;2.77;100.00;98721.28;5034600;28;20038;-55
2023/01/16 04:45:28;;;;;;;8.90;2.47;;;;;;;2.77;100.00;98705.72;5017092;28;20033;-55
2023/01/16 04:47:54;;;;;;;8.95;1.80;;;;;;;2.43;100.00;98637.66;5034518;28;20045;-54
2023/01/16 04:50:19;;;;;;;3.15;1.63;;;;;;;2.70;100.00;98672.22;5034869;28;20033;-54
2023/01/16 04:52:45;;;;;;;6.28;1.95;;;;;;;2.41;100.00;98615.25;5016894;28;20473;-52
2023/01/16 04:55:11;;;;;;;6.15;1.60;;;;;;;2.76;100.00;98657.28;5016746;28;20057;-51
2023/01/16 04:57:36;;;;;;;6.53;2.00;;;;;;;2.45;100.00;98591.72;5034223;28;20052;-51
2023/01/16 05:00:04;;;;;;;6.03;1.98;;;;;;;2.76;100.00;98648.63;5034331;28;20076;-53
2023/01/16 05:02:29;;;;;;;5.47;1.92;;;;;;;2.88;100.00;98642.13;5016713;28;20506;-53
2023/01/16 05:04:54;;;;;;;5.68;1.48;;;;;;;2.56;100.00;98576.63;5016520;28;20029;-52
2023/01/16 05:07:20;;;;;;;5.63;2.03;;;;;;;2.96;100.00;98619.31;5034097;28;20037;-54
2023/01/16 05:09:45;;;;;;;6.40;2.80;;;;;;;2.95;100.00;98608.06;5034208;28;20097;-53
2023/01/16 05:12:10;;;;;;;6.78;2.00;;;;;;;2.66;100.00;98543.34;5033919;28;20476;-52
2023/01/16 05:14:36;;;;;;;3.65;1.95;;;;;;;3.05;100.00;98603.38;5033614;28;20124;-51
2023/01/16 05:17:01;;;;;;;5.57;1.80;;;;;;;3.03;100.00;98579.22;4999691;28;20037;-52
2023/01/16 05:19:26;;;;;;;3.40;1.85;;;;;;;3.03;100.00;98561.88;5033954;28;20064;-53
2023/01/16 05:21:52;;;;;;;5.93;2.50;;;;;;;3.06;100.00;98553.97;5033933;28;20045;-50
2023/01/16 05:24:17;;;;;;;7.38;2.22;;;;;;;3.05;100.00;98549.66;5015668;28;20029;-54
2023/01/16 05:26:42;;;;;;;5.40;2.17;;;;;;;3.08;100.00;98540.88;5033789;28;20025;-54
2023/01/16 05:29:08;;;;;;;8.45;2.30;;;;;;;3.10;100.00;98536.47;5033764;28;20080;-50
2023/01/16 05:31:33;;;;;;;7.22;2.17;;;;;;;3.09;100.00;98542.59;5033777;28;20388;-50
2023/01/16 05:33:58;;;;;;;5.68;2.15;;;;;;;3.12;100.00;98526.88;5034020;28;20029;-53
2023/01/16 05:36:24;;;;;;;7.05;2.58;;;;;;;3.15;100.00;98505.97;5029129;28;20037;-49
2023/01/16 05:38:50;;;;;;;13.10;2.30;;;;;;;3.08;100.00;98494.09;5032726;28;20128;-51
2023/01/16 05:41:15;;;;;;;6.32;2.25;;;;;;;3.18;100.00;98509.25;5032785;28;20037;-52
2023/01/16 05:43:41;;;;;;;5.30;1.73;;;;;;;3.21;100.00;98514.34;5015117;28;20041;-53
2023/01/16 05:46:06;;;;;;;5.82;2.22;;;;;;;2.83;100.00;98432.69;5015227;28;20096;-54
2023/01/16 05:48:32;;;;;;;6.00;2.03;;;;;;;3.15;100.00;98482.56;5033292;28;20061;-54
2023/01/16 05:50:57;;;;;;;6.22;2.15;;;;;;;2.87;100.00;98419.59;5033240;28;20096;-52
2023/01/16 05:53:23;;;;;;;11.82;2.17;;;;;;;3.14;100.00;98460.06;5033264;28;20060;-54
2023/01/16 05:55:48;;;;;;;6.90;2.03;;;;;;;2.87;100.00;98394.47;5033303;28;20049;-53
2023/01/16 05:58:15;;;;;;;7.20;2.20;;;;;;;3.21;100.00;98451.94;4998851;28;20038;-50
2023/01/16 06:00:41;;;;;;;3.60;2.05;;;;;;;2.90;100.00;98394.34;5033031;28;20038;-53
2023/01/16 06:03:07;;;;;;;6.78;2.10;;;;;;;3.26;100.00;98444.00;5015475;28;20037;-52
2023/01/16 06:05:33;;;;;;;4.53;1.70;;;;;;;3.27;100.00;98453.47;5015214;28;20026;-55
2023/01/16 06:07:58;;;;;;;6.35;2.30;;;;;;;3.15;100.00;98409.78;5032744;28;20087;-51
2023/01/16 06:10:24;;;;;;;8.50;2.30;;;;;;;3.33;100.00;98435.00;5032480;28;20057;-52
2023/01/16 06:12:50;;;;;;;10.73;2.17;;;;;;;3.30;100.00;98429.94;5032740;28;20033;-54
2023/01/16 06:15:15;;;;;;;5.75;2.13;;;;;;;3.33;100.00;98428.06;5033035;28;20037;-49
2023/01/16 06:17:40;;;;;;;5.95;2.40;;;;;;;2.98;100.00;98353.28;5032758;28;20041;-57
2023/01/16 06:20:06;;;;;;;6.68;2.17;;;;;;;3.35;100.00;98408.06;5015004;28;20397;-55
2023/01/16 06:22:32;;;;;;;7.70;2.53;;;;;;;3.35;100.00;98417.63;5032506;28;20477;-55
2023/01/16 06:24:57;;;;;;;10.07;2.97;;;;;;;3.34;100.00;98395.09;5014615;28;20044;-54
2023/01/16 06:27:22;;;;;;;7.28;3.13;;;;;;;3.34;100.00;98375.16;5032269;28;20091;-54
2023/01/16 06:29:48;;;;;;;7.25;2.53;;;;;;;3.40;100.00;98381.84;5032386;28;20037;-57
2023/01/16 06:32:16;;;;;;;10.07;2.70;;;;;;;3.06;100.00;98307.06;5032644;28;20104;-54
2023/01/16 06:34:42;;;;;;;8.07;2.20;;;;;;;3.41;100.00;98360.97;5014948;28;20465;-54
2023/01/16 06:37:07;;;;;;;7.82;2.17;;;;;;;3.08;100.00;98297.44;5014649;28;20030;-53
2023/01/16 06:39:32;;;;;;;7.90;2.15;;;;;;;3.09;100.00;98290.50;5032441;28;20044;-54
2023/01/16 06:41:58;;;;;;;8.93;2.70;;;;;;;3.46;100.00;98346.94;5032219;28;20061;-58
2023/01/16 06:44:23;;;;;;;9.57;2.47;;;;;;;3.15;100.00;98295.44;5032453;28;20069;-56
2023/01/16 06:46:48;;;;;;;14.32;3.30;;;;;;;3.12;100.00;98272.16;5032271;28;20038;-56
2023/01/16 06:49:13;;;;;;;11.00;2.60;;;;;;;3.38;100.00;98313.47;5014212;28;20041;-55
2023/01/16 06:51:39;;;;;;;9.02;2.50;;;;;;;3.51;100.00;98314.63;5031994;28;20049;-55
2023/01/16 06:54:04;;;;;;;7.93;2.83;;;;;;;3.45;100.00;98303.63;5032034;28;20330;-55
2023/01/16 06:56:30;;;;;;;11.05;2.55;;;;;;;3.51;100.00;98306.81;5031910;28;20145;-57
2023/01/16 06:58:55;;;;;;;6.25;2.10;;;;;;;3.33;100.00;98273.81;5032135;28;20462;-56
2023/01/16 07:01:20;;;;;;;8.93;2.35;;;;;;;3.12;100.00;98214.97;5031894;28;20109;-52
2023/01/16 07:03:46;;;;;;;7.57;2.08;;;;;;;3.51;100.00;98290.34;5032040;28;20499;-55
2023/01/16 07:06:14;;;;;;;4.40;1.80;;;;;;;3.46;100.00;98269.78;5031910;28;20038;-57
2023/01/16 07:08:40;;;;;;;9.90;2.10;;;;;;;3.16;100.00;98201.78;5032093;28;20049;-58
2023/01/16 07:11:05;;;;;;;9.88;1.70;;;;;;;3.43;100.00;98236.09;5031661;28;20177;-55
2023/01/16 07:13:30;;;;;;;7.57;1.85;;;;;;;3.51;100.00;98240.94;5031804;28;20564;-57
2023/01/16 07:24:12;;;;;;;12.05;2.08;;;;;;;3.15;100.00;98149.88;5016957;28;20420;-58
2023/01/16 07:26:41;;;;;;;6.78;2.10;;;;;;;3.03;100.00;98127.03;5014088;28;20033;-57
2023/01/16 07:29:06;;;;;;;7.75;2.15;;;;;;;3.44;100.00;98187.53;5013567;28;20053;-58
2023/01/16 07:31:33;;;;;;;9.15;2.20;;;;;;;3.45;100.00;98191.81;5013859;28;20414;-59
2023/01/16 07:33:58;;;;;;;8.07;2.30;;;;;;;3.36;100.00;98159.28;5014237;28;20037;-54
2023/01/16 07:36:24;;;;;;;8.38;2.30;;;;;;;3.42;100.00;98153.78;5031733;28;20044;-58
2023/01/16 07:38:49;;;;;;;9.98;3.00;;;;;;;3.22;100.00;98122.66;5031988;28;20041;-58
2023/01/16 07:41:15;;;;;;;9.18;2.30;;;;;;;3.42;100.00;98154.63;5031566;28;20045;-58
2023/01/16 07:43:40;;;;;;;3.97;2.10;;;;;;;3.08;100.00;98081.72;5031492;28;20476;-59
2023/01/16 07:46:06;;;;;;;9.10;2.95;;;;;;;3.42;100.00;98136.44;5031287;28;20037;-59
2023/01/16 07:48:31;;;;;;;6.78;2.78;;;;;;;3.29;100.00;98093.75;5031035;28;20172;-58
2023/01/16 07:50:58;;;;;;;9.38;3.05;;;;;;;3.46;100.00;98138.91;5031432;28;20083;-56
2023/01/16 07:53:25;;;;;;;9.25;2.80;;;;;;;3.09;100.00;98051.38;5013637;28;20741;-58
2023/01/16 07:55:53;;;;;;;8.80;2.47;;;;;;;3.43;100.00;98106.09;5031468;28;20110;-59
2023/01/16 07:58:19;;;;;;;7.18;2.70;;;;;;;3.15;100.00;98051.09;5032233;28;20057;-57
2023/01/16 08:00:45;;;;;;;10.75;2.65;;;;;;;3.06;100.00;98028.16;5017313;28;20467;-59
2023/01/16 08:03:11;;;;;;;8.63;2.55;;;;;;;3.36;100.00;98058.72;5035153;28;20037;-60
2023/01/16 08:05:37;;;;;;;8.88;2.25;;;;;;;3.19;100.00;98042.22;5017403;28;20037;-59
2023/01/16 08:08:03;;;;;;;10.05;2.47;;;;;;;3.42;100.00;98066.22;5034775;28;20046;-58
2023/01/16 08:10:28;;;;;;;9.65;2.90;;;;;;;3.04;100.00;97997.00;5013694;28;20455;-59
2023/01/16 08:12:53;;;;;;;9.02;2.40;;;;;;;2.95;100.00;97978.44;5015392;28;20121;-59
2023/01/16 08:15:19;;;;;;;5.60;2.60;;;;;;;2.98;100.00;97975.69;5015227;28;20034;-58
2023/01/16 08:17:44;;;;;;;6.80;2.70;;;;;;;3.00;100.00;97969.50;5014747;28;20058;-60
2023/01/16 08:20:10;;;;;;;7.30;2.60;;;;;;;3.47;100.00;98047.81;5015146;28;20039;-58
2023/01/16 08:22:44;;;;;;;4.88;1.90;;;;;;;3.45;100.00;98041.84;5013990;28;20125;-58
2023/01/16 08:25:09;;;;;;;5.50;2.10;;;;;;;3.50;100.00;98034.69;5014086;28;20033;-60
2023/01/16 08:27:35;;;;;;;8.32;2.22;;;;;;;3.51;100.00;98033.75;5013916;28;20545;-54
2023/01/16 08:30:00;;;;;;;7.53;2.60;;;;;;;3.52;100.00;98032.00;5014702;28;20079;-60
2023/01/16 08:32:25;;;;;;;5.45;2.15;;;;;;;3.53;100.00;98034.53;5014767;28;20080;-60
2023/01/16 08:34:51;;;;;;;6.05;2.38;;;;;;;3.13;100.00;97965.41;5013676;28;20474;-61
2023/01/16 08:37:16;;;;;;;6.65;2.40;;;;;;;3.56;100.00;98016.16;5012894;28;20048;-60
2023/01/16 08:39:41;;;;;;;5.82;2.55;;;;;;;3.52;100.00;98014.63;5014050;28;20353;-57
2023/01/16 08:53:05;;;;;;;6.63;2.83;;;;;;;3.63;100.00;97980.28;5012419;28;20049;-59
2023/01/16 08:55:30;;;;;;;6.57;2.60;;;;;;;3.49;100.00;97957.56;5011167;28;20042;-60
2023/01/16 08:57:58;;;;;;;8.60;3.28;;;;;;;3.53;100.00;97953.06;5013423;28;20053;-60
2023/01/16 09:00:25;;;;;;;11.02;3.28;;;;;;;3.63;100.00;97957.72;5011964;28;20037;-59
2023/01/16 09:02:50;;;;;;;5.38;2.38;;;;;;;3.27;100.00;97899.72;5012298;28;20034;-58
2023/01/16 09:05:16;;;;;;;3.75;2.55;;;;;;;3.22;100.00;97884.38;5011807;28;20365;-58
2023/01/16 09:07:41;;;;;;;4.20;2.75;;;;;;;3.68;100.00;97965.28;5012037;28;20045;-57
2023/01/16 09:10:07;;;;;;;9.10;2.95;;;;;;;3.69;100.00;97943.56;5027704;28;20405;-58
2023/01/16 09:15:16;;;;;;;7.45;2.95;;;;;;;3.59;100.00;97930.16;5033155;28;20074;-57
2023/01/16 09:17:42;;;;;;;4.40;2.75;;;;;;;3.73;100.00;97938.13;5032509;28;20045;-59
2023/01/16 09:20:08;;;;;;;7.40;3.22;;;;;;;3.74;100.00;97932.00;5032062;28;20179;-59
2023/01/16 09:22:34;;;;;;;3.85;2.88;;;;;;;3.73;100.00;97927.72;5015235;28;20133;-59
2023/01/16 09:24:59;;;;;;;5.68;2.85;;;;;;;3.58;100.00;97894.69;5014862;28;20168;-60
2023/01/16 09:27:24;;;;;;;6.78;2.63;;;;;;;3.77;100.00;97918.00;5014592;28;20488;-58
2023/01/16 09:29:50;;;;;;;4.68;2.60;;;;;;;3.68;100.00;97905.44;5032548;28;20667;-58
2023/01/16 09:32:17;;;;;;;7.13;2.55;;;;;;;3.37;100.00;97846.38;5014867;28;20120;-60
2023/01/16 09:34:43;;;;;;;4.43;2.60;;;;;;;3.83;100.00;97912.47;5032229;28;20050;-53
2023/01/16 09:37:08;;;;;;;3.80;2.75;;;;;;;3.80;100.00;97900.47;5032812;28;20040;-58
2023/01/16 09:39:34;;;;;;;5.03;2.70;;;;;;;3.76;100.00;97893.75;5032335;28;20497;-58
2023/01/16 09:45:17;;;;;;;7.47;2.72;;;;;;;3.89;100.00;97901.75;5032709;28;20056;-60
2023/01/16 09:47:47;;;;;;;6.60;2.47;;;;;;;3.42;100.00;97818.38;5014548;28;20575;-57
2023/01/16 09:50:30;;;;;;;6.88;3.00;;;;;;;3.90;100.00;97906.03;5014874;28;20033;-60
2023/01/16 09:58:38;;;;;;;3.45;2.45;;;;;;;3.84;100.00;97862.13;5032372;28;20036;-60
2023/01/16 10:01:34;;;;;;;6.15;2.90;;;;;;;3.92;100.00;97875.56;4999202;28;20172;-60
2023/01/16 10:04:14;;;;;;;3.38;2.33;;;;;;;3.89;100.00;97863.56;5027673;28;20049;-59
2023/01/16 10:06:52;;;;;;;6.63;3.30;;;;;;;3.90;100.00;97870.47;5014476;28;20456;-60
2023/01/16 10:09:42;;;;;;;4.85;2.97;;;;;;;3.51;100.00;97788.44;5031111;28;20511;-60
2023/01/16 10:12:11;;;;;;;4.22;2.58;;;;;;;3.48;100.00;97786.84;5013835;28;20429;-60
2023/01/16 10:15:08;;;;;;;5.18;2.80;;;;;;;3.95;100.00;97852.84;5014368;28;20125;-60
2023/01/16 10:17:45;;;;;;;3.35;2.80;;;;;;;3.96;100.00;97849.31;5031910;28;20397;-61
2023/01/16 10:20:52;;;;;;;7.57;3.00;;;;;;;3.99;100.00;97850.91;5013626;28;20029;-60
2023/01/16 10:23:26;;;;;;;6.57;3.28;;;;;;;3.97;100.00;97848.38;4931903;29;20155;-64
2023/01/16 10:26:03;;;;;;;4.68;2.95;;;;;;;3.56;100.00;97774.28;4932259;29;20075;-61
2023/01/16 10:28:39;;;;;;;4.45;2.78;;;;;;;4.00;100.00;97841.34;4993101;28;20374;-58
2023/01/16 10:31:36;;;;;;;5.95;3.10;;;;;;;4.02;100.00;97836.91;4981585;28;20046;-60
2023/01/16 10:34:09;;;;;;;8.27;3.03;;;;;;;4.01;100.00;97835.22;4993366;28;20367;-59
2023/01/16 10:36:39;;;;;;;5.78;3.05;;;;;;;4.00;100.00;97829.16;5011484;28;20137;-59
2023/01/16 10:39:04;;;;;;;5.60;3.38;;;;;;;3.89;100.00;97800.28;4994308;28;20029;-59
2023/01/16 10:49:58;;;;;;;8.05;3.58;;;;;;;3.65;100.00;97733.97;5030268;28;20052;-59
2023/01/16 10:52:24;;;;;;;5.68;3.15;;;;;;;4.05;100.00;97797.69;5011884;28;20037;-59
2023/01/16 10:54:51;;;;;;;5.47;3.20;;;;;;;4.06;100.00;97796.78;5013063;28;20385;-60
2023/01/16 10:57:18;;;;;;;3.90;3.50;;;;;;;3.96;100.00;97778.22;5030512;28;20160;-61
2023/01/16 10:59:46;;;;;;;5.05;3.10;;;;;;;4.02;100.00;97774.44;5030484;28;20041;-59
2023/01/16 11:02:32;;;;;;;5.80;3.10;;;;;;;4.15;100.00;97788.44;5012839;28;20113;-58
2023/01/16 11:04:57;;;;;;;3.53;2.80;;;;;;;3.76;100.00;97729.88;5013397;28;20021;-62
2023/01/16 11:07:26;;;;;;;4.80;2.53;;;;;;;3.70;100.00;97696.38;5013058;28;20503;-60
2023/01/16 11:09:52;;;;;;;4.70;3.42;;;;;;;3.75;100.00;97699.56;5030421;28;20049;-60
2023/01/16 11:18:30;;;;;;;4.15;3.22;;;;;;;4.29;100.00;97765.94;5015453;28;20136;-57
2023/01/16 11:21:01;;;;;;;3.42;3.08;;;;;;;4.29;100.00;97768.53;5030448;28;20030;-59
2023/01/16 11:23:37;;;;;;;3.90;3.53;;;;;;;3.85;100.00;97668.69;5030413;28;20128;-59
2023/01/16 11:26:04;;;;;;;3.75;2.75;;;;;;;3.95;100.00;97670.69;5030374;28;20417;-60
2023/01/16 11:28:31;;;;;;;5.25;2.88;;;;;;;3.96;100.00;97664.56;4996240;28;20136;-60
2023/01/16 11:31:06;;;;;;;3.70;2.72;;;;;;;4.47;100.00;97732.81;5012371;28;20045;-59
2023/01/16 11:33:38;;;;;;;6.03;2.72;;;;;;;4.58;100.00;97758.25;5029509;28;20484;-60
2023/01/16 11:36:04;;;;;;;4.90;3.00;;;;;;;4.16;100.00;97657.38;5012531;28;20100;-59
2023/01/16 11:38:34;;;;;;;7.43;2.78;;;;;;;4.10;100.00;97639.50;5012654;28;20120;-59
2023/01/16 11:41:01;;;;;;;4.65;3.03;;;;;;;4.75;100.00;97719.91;5012713;28;20029;-59
2023/01/16 11:46:26;;;;;;;2.85;2.63;;;;;;;4.91;100.00;97730.25;5015143;28;20225;-57
2023/01/16 11:48:54;;;;;;;5.22;2.78;;;;;;;4.84;100.00;97700.28;5029620;28;20124;-59
2023/01/16 11:51:23;;;;;;;2.90;2.50;;;;;;;4.93;100.00;97710.97;5011700;28;20037;-59
2023/01/16 11:53:49;;;;;;;4.80;2.85;;;;;;;4.63;100.00;97642.44;5029861;28;20060;-59
2023/01/16 11:56:32;;;;;;;3.45;2.47;;;;;;;5.00;100.00;97701.03;5029663;28;20033;-59
2023/01/16 11:59:11;;;;;;;3.65;2.40;;;;;;;4.90;100.00;97674.66;5030032;28;20045;-59
2023/01/16 12:04:32;;;;;;;4.07;2.80;;;;;;;5.26;100.00;97686.41;5030078;28;20381;-59
2023/01/16 12:07:15;;;;;;;2.88;2.17;;;;;;;5.05;100.00;97639.03;5029606;28;20041;-57
2023/01/16 12:09:50;;;;;;;2.15;1.95;;;;;;;5.33;100.00;97683.34;5029736;28;20827;-59
2023/01/16 12:15:16;;;;;;;1.55;1.40;;;;;;;5.06;100.00;97604.22;5014969;28;20036;-57
2023/01/16 12:18:00;;;;;;;2.63;1.65;;;;;;;5.51;100.00;97690.06;5012217;28;20137;-58
2023/01/16 12:20:29;;;;;;;1.85;1.60;;;;;;;5.11;100.00;97578.69;5029631;28;20037;-58
2023/01/16 12:23:17;;;;;;;2.05;1.80;;;;;;;5.62;100.00;97668.50;5029655;28;20378;-59
2023/01/16 12:25:54;;;;;;;2.17;1.55;;;;;;;5.69;100.00;97667.22;5029439;28;20095;-55
2023/01/16 12:28:57;;;;;;;3.67;1.48;;;;;;;5.70;100.00;97647.97;5029831;28;20174;-56
2023/01/16 12:31:38;;;;;;;4.95;1.77;;;;;;;5.63;100.00;97657.16;5029751;28;20095;-59
2023/01/16 12:34:06;;;;;;;1.60;1.50;;;;;;;5.75;100.00;97648.53;5029769;28;20116;-56
2023/01/16 12:36:40;;;;;;;1.75;1.10;;;;;;;5.34;100.00;97578.09;5029777;28;20094;-56
2023/01/16 12:39:27;;;;;;;2.05;1.63;;;;;;;5.81;100.00;97648.13;5028829;28;20041;-57